sensor_id;sensor_type;location;lat;lon;timestamp;P1;durP1;ratioP1;P2;durP2;ratioP2
51270;SDS011;37744;50.960;4.136;2023-04-24T00:02:01;27.73;;;14.70;;
51270;SDS011;37744;50.960;4.136;2023-04-24T00:04:28;32.83;;;15.52;;
51270;SDS011;37744;50.960;4.136;2023-04-24T00:06:54;32.47;;;15.20;;
51270;SDS011;37744;50.960;4.136;2023-04-24T00:09:23;35.47;;;15.20;;
51270;SDS011;37744;50.960;4.136;2023-04-24T00:11:50;30.23;;;15.25;;
51270;SDS011;37744;50.960;4.136;2023-04-24T00:14:15;36.45;;;15.27;;
51270;SDS011;37744;50.960;4.136;2023-04-24T00:16:40;32.70;;;15.10;;
51270;SDS011;37744;50.960;4.136;2023-04-24T00:19:06;30.15;;;15.45;;
51270;SDS011;37744;50.960;4.136;2023-04-24T00:21:31;32.33;;;15.27;;
51270;SDS011;37744;50.960;4.136;2023-04-24T00:23:57;35.72;;;15.98;;
51270;SDS011;37744;50.960;4.136;2023-04-24T00:26:23;30.30;;;14.38;;
51270;SDS011;37744;50.960;4.136;2023-04-24T00:28:48;37.10;;;15.20;;
51270;SDS011;37744;50.960;4.136;2023-04-24T00:31:13;31.42;;;15.18;;
51270;SDS011;37744;50.960;4.136;2023-04-24T00:33:39;33.78;;;15.52;;
51270;SDS011;37744;50.960;4.136;2023-04-24T00:36:05;30.08;;;14.43;;
51270;SDS011;37744;50.960;4.136;2023-04-24T00:38:30;29.48;;;15.02;;
51270;SDS011;37744;50.960;4.136;2023-04-24T00:40:56;26.63;;;14.20;;
51270;SDS011;37744;50.960;4.136;2023-04-24T00:43:21;34.80;;;15.18;;
51270;SDS011;37744;50.960;4.136;2023-04-24T00:45:47;32.20;;;15.13;;
51270;SDS011;37744;50.960;4.136;2023-04-24T00:48:12;29.70;;;14.68;;
51270;SDS011;37744;50.960;4.136;2023-04-24T00:50:39;29.50;;;15.23;;
51270;SDS011;37744;50.960;4.136;2023-04-24T00:53:04;35.25;;;15.32;;
51270;SDS011;37744;50.960;4.136;2023-04-24T00:55:30;25.83;;;14.85;;
51270;SDS011;37744;50.960;4.136;2023-04-24T00:57:55;35.92;;;15.38;;
51270;SDS011;37744;50.960;4.136;2023-04-24T01:00:20;33.03;;;15.18;;
51270;SDS011;37744;50.960;4.136;2023-04-24T01:02:46;30.88;;;15.65;;
51270;SDS011;37744;50.960;4.136;2023-04-24T01:05:12;32.33;;;15.77;;
51270;SDS011;37744;50.960;4.136;2023-04-24T01:07:38;34.40;;;15.52;;
51270;SDS011;37744;50.960;4.136;2023-04-24T01:10:04;28.80;;;15.52;;
51270;SDS011;37744;50.960;4.136;2023-04-24T01:12:29;31.60;;;14.73;;
51270;SDS011;37744;50.960;4.136;2023-04-24T01:14:55;24.63;;;13.65;;
51270;SDS011;37744;50.960;4.136;2023-04-24T01:17:21;24.95;;;12.68;;
51270;SDS011;37744;50.960;4.136;2023-04-24T01:19:47;25.63;;;12.63;;
51270;SDS011;37744;50.960;4.136;2023-04-24T01:22:13;21.35;;;12.60;;
51270;SDS011;37744;50.960;4.136;2023-04-24T01:24:39;25.42;;;12.85;;
51270;SDS011;37744;50.960;4.136;2023-04-24T01:27:04;25.15;;;11.18;;
51270;SDS011;37744;50.960;4.136;2023-04-24T01:29:31;19.10;;;9.93;;
51270;SDS011;37744;50.960;4.136;2023-04-24T01:31:56;15.10;;;10.27;;
51270;SDS011;37744;50.960;4.136;2023-04-24T01:34:23;13.48;;;9.25;;
51270;SDS011;37744;50.960;4.136;2023-04-24T01:36:48;16.40;;;9.15;;
51270;SDS011;37744;50.960;4.136;2023-04-24T01:39:14;17.50;;;9.35;;
51270;SDS011;37744;50.960;4.136;2023-04-24T01:41:41;19.27;;;9.40;;
51270;SDS011;37744;50.960;4.136;2023-04-24T01:44:07;18.83;;;10.27;;
51270;SDS011;37744;50.960;4.136;2023-04-24T01:46:32;15.02;;;9.38;;
51270;SDS011;37744;50.960;4.136;2023-04-24T01:49:00;17.88;;;8.38;;
51270;SDS011;37744;50.960;4.136;2023-04-24T01:51:25;17.23;;;8.77;;
51270;SDS011;37744;50.960;4.136;2023-04-24T01:53:50;15.00;;;7.88;;
51270;SDS011;37744;50.960;4.136;2023-04-24T01:56:16;13.55;;;8.05;;
51270;SDS011;37744;50.960;4.136;2023-04-24T01:58:41;13.90;;;8.75;;
51270;SDS011;37744;50.960;4.136;2023-04-24T02:01:07;15.07;;;8.82;;
51270;SDS011;37744;50.960;4.136;2023-04-24T02:03:33;17.15;;;8.75;;
51270;SDS011;37744;50.960;4.136;2023-04-24T02:05:58;16.48;;;9.07;;
51270;SDS011;37744;50.960;4.136;2023-04-24T02:08:23;16.10;;;9.55;;
51270;SDS011;37744;50.960;4.136;2023-04-24T02:10:49;18.55;;;10.20;;
51270;SDS011;37744;50.960;4.136;2023-04-24T02:13:14;24.08;;;11.18;;
51270;SDS011;37744;50.960;4.136;2023-04-24T02:15:39;23.58;;;12.00;;
51270;SDS011;37744;50.960;4.136;2023-04-24T02:18:05;25.20;;;12.00;;
51270;SDS011;37744;50.960;4.136;2023-04-24T02:20:31;28.88;;;12.50;;
51270;SDS011;37744;50.960;4.136;2023-04-24T02:22:59;24.77;;;12.80;;
51270;SDS011;37744;50.960;4.136;2023-04-24T02:25:24;23.17;;;12.38;;
51270;SDS011;37744;50.960;4.136;2023-04-24T02:27:49;25.27;;;12.77;;
51270;SDS011;37744;50.960;4.136;2023-04-24T02:30:15;25.15;;;12.52;;
51270;SDS011;37744;50.960;4.136;2023-04-24T02:32:40;23.95;;;13.70;;
51270;SDS011;37744;50.960;4.136;2023-04-24T02:35:05;27.83;;;13.90;;
51270;SDS011;37744;50.960;4.136;2023-04-24T02:37:31;29.98;;;13.95;;
51270;SDS011;37744;50.960;4.136;2023-04-24T02:39:56;23.17;;;13.57;;
51270;SDS011;37744;50.960;4.136;2023-04-24T02:42:21;29.25;;;13.30;;
51270;SDS011;37744;50.960;4.136;2023-04-24T02:44:47;26.15;;;13.45;;
51270;SDS011;37744;50.960;4.136;2023-04-24T02:47:12;22.55;;;12.82;;
51270;SDS011;37744;50.960;4.136;2023-04-24T02:49:37;22.17;;;13.50;;
51270;SDS011;37744;50.960;4.136;2023-04-24T02:52:03;22.90;;;12.68;;
51270;SDS011;37744;50.960;4.136;2023-04-24T02:54:28;24.27;;;13.25;;
51270;SDS011;37744;50.960;4.136;2023-04-24T02:56:53;25.10;;;12.38;;
51270;SDS011;37744;50.960;4.136;2023-04-24T02:59:19;28.05;;;12.10;;
51270;SDS011;37744;50.960;4.136;2023-04-24T03:01:44;22.75;;;11.43;;
51270;SDS011;37744;50.960;4.136;2023-04-24T03:04:09;20.58;;;11.70;;
51270;SDS011;37744;50.960;4.136;2023-04-24T03:06:35;25.27;;;13.27;;
51270;SDS011;37744;50.960;4.136;2023-04-24T03:09:01;23.02;;;12.07;;
51270;SDS011;37744;50.960;4.136;2023-04-24T03:11:26;22.50;;;12.88;;
51270;SDS011;37744;50.960;4.136;2023-04-24T03:13:51;27.23;;;12.80;;
51270;SDS011;37744;50.960;4.136;2023-04-24T03:16:17;22.33;;;11.65;;
51270;SDS011;37744;50.960;4.136;2023-04-24T03:18:42;23.65;;;13.65;;
51270;SDS011;37744;50.960;4.136;2023-04-24T03:21:07;19.83;;;10.93;;
51270;SDS011;37744;50.960;4.136;2023-04-24T03:23:32;19.42;;;10.18;;
51270;SDS011;37744;50.960;4.136;2023-04-24T03:25:58;16.45;;;9.35;;
51270;SDS011;37744;50.960;4.136;2023-04-24T03:28:23;17.85;;;9.60;;
51270;SDS011;37744;50.960;4.136;2023-04-24T03:30:50;17.42;;;11.02;;
51270;SDS011;37744;50.960;4.136;2023-04-24T03:33:15;18.50;;;10.40;;
51270;SDS011;37744;50.960;4.136;2023-04-24T03:35:40;19.10;;;10.80;;
51270;SDS011;37744;50.960;4.136;2023-04-24T03:38:06;16.90;;;10.50;;
51270;SDS011;37744;50.960;4.136;2023-04-24T03:40:31;15.95;;;10.23;;
51270;SDS011;37744;50.960;4.136;2023-04-24T03:42:58;23.33;;;10.02;;
51270;SDS011;37744;50.960;4.136;2023-04-24T03:45:23;15.95;;;9.38;;
51270;SDS011;37744;50.960;4.136;2023-04-24T03:47:49;21.38;;;10.60;;
51270;SDS011;37744;50.960;4.136;2023-04-24T03:50:15;15.38;;;9.38;;
51270;SDS011;37744;50.960;4.136;2023-04-24T03:52:40;16.25;;;9.63;;
51270;SDS011;37744;50.960;4.136;2023-04-24T03:55:06;17.80;;;8.75;;
51270;SDS011;37744;50.960;4.136;2023-04-24T03:57:31;14.30;;;7.95;;
51270;SDS011;37744;50.960;4.136;2023-04-24T03:59:56;13.45;;;7.00;;
51270;SDS011;37744;50.960;4.136;2023-04-24T04:02:22;14.18;;;6.93;;
51270;SDS011;37744;50.960;4.136;2023-04-24T04:04:47;15.18;;;6.93;;
51270;SDS011;37744;50.960;4.136;2023-04-24T04:07:12;13.60;;;7.25;;
51270;SDS011;37744;50.960;4.136;2023-04-24T04:09:38;17.45;;;9.00;;
51270;SDS011;37744;50.960;4.136;2023-04-24T04:12:03;16.30;;;8.80;;
51270;SDS011;37744;50.960;4.136;2023-04-24T04:14:28;18.05;;;9.02;;
51270;SDS011;37744;50.960;4.136;2023-04-24T04:16:54;16.65;;;8.50;;
51270;SDS011;37744;50.960;4.136;2023-04-24T04:19:20;19.02;;;9.35;;
51270;SDS011;37744;50.960;4.136;2023-04-24T04:21:45;19.48;;;10.00;;
51270;SDS011;37744;50.960;4.136;2023-04-24T04:24:11;17.73;;;9.23;;
51270;SDS011;37744;50.960;4.136;2023-04-24T04:26:36;20.85;;;10.15;;
51270;SDS011;37744;50.960;4.136;2023-04-24T04:29:02;17.77;;;10.15;;
51270;SDS011;37744;50.960;4.136;2023-04-24T04:31:29;24.95;;;11.23;;
51270;SDS011;37744;50.960;4.136;2023-04-24T04:33:55;22.95;;;12.00;;
51270;SDS011;37744;50.960;4.136;2023-04-24T04:36:20;25.85;;;12.27;;
51270;SDS011;37744;50.960;4.136;2023-04-24T04:38:46;28.20;;;12.30;;
51270;SDS011;37744;50.960;4.136;2023-04-24T04:41:11;25.88;;;12.57;;
51270;SDS011;37744;50.960;4.136;2023-04-24T04:43:37;32.40;;;13.35;;
51270;SDS011;37744;50.960;4.136;2023-04-24T04:46:04;22.48;;;12.60;;
51270;SDS011;37744;50.960;4.136;2023-04-24T04:48:30;29.52;;;13.40;;
51270;SDS011;37744;50.960;4.136;2023-04-24T04:50:56;24.70;;;13.32;;
51270;SDS011;37744;50.960;4.136;2023-04-24T04:53:23;32.63;;;14.82;;
51270;SDS011;37744;50.960;4.136;2023-04-24T04:55:48;34.35;;;14.30;;
51270;SDS011;37744;50.960;4.136;2023-04-24T04:58:14;34.17;;;15.18;;
51270;SDS011;37744;50.960;4.136;2023-04-24T05:00:40;36.17;;;14.63;;
51270;SDS011;37744;50.960;4.136;2023-04-24T05:03:06;30.83;;;15.23;;
51270;SDS011;37744;50.960;4.136;2023-04-24T05:05:31;32.63;;;15.68;;
51270;SDS011;37744;50.960;4.136;2023-04-24T05:07:57;33.70;;;14.73;;
51270;SDS011;37744;50.960;4.136;2023-04-24T05:10:22;28.55;;;14.18;;
51270;SDS011;37744;50.960;4.136;2023-04-24T05:12:47;32.97;;;14.80;;
51270;SDS011;37744;50.960;4.136;2023-04-24T05:15:14;29.85;;;14.43;;
51270;SDS011;37744;50.960;4.136;2023-04-24T05:17:39;34.20;;;14.75;;
51270;SDS011;37744;50.960;4.136;2023-04-24T05:20:05;33.25;;;16.02;;
51270;SDS011;37744;50.960;4.136;2023-04-24T05:22:31;35.08;;;16.17;;
51270;SDS011;37744;50.960;4.136;2023-04-24T05:24:57;33.20;;;15.52;;
51270;SDS011;37744;50.960;4.136;2023-04-24T05:27:22;37.45;;;16.85;;
51270;SDS011;37744;50.960;4.136;2023-04-24T05:29:48;42.97;;;16.50;;
51270;SDS011;37744;50.960;4.136;2023-04-24T05:32:13;26.08;;;12.98;;
51270;SDS011;37744;50.960;4.136;2023-04-24T05:34:38;33.17;;;14.20;;
51270;SDS011;37744;50.960;4.136;2023-04-24T05:37:05;30.90;;;14.40;;
51270;SDS011;37744;50.960;4.136;2023-04-24T05:39:33;29.00;;;13.98;;
51270;SDS011;37744;50.960;4.136;2023-04-24T05:41:58;35.75;;;15.88;;
51270;SDS011;37744;50.960;4.136;2023-04-24T05:44:24;30.17;;;14.15;;
51270;SDS011;37744;50.960;4.136;2023-04-24T05:46:49;33.40;;;15.63;;
51270;SDS011;37744;50.960;4.136;2023-04-24T05:49:15;30.83;;;15.15;;
51270;SDS011;37744;50.960;4.136;2023-04-24T05:51:40;37.65;;;15.93;;
51270;SDS011;37744;50.960;4.136;2023-04-24T05:54:06;43.13;;;16.50;;
51270;SDS011;37744;50.960;4.136;2023-04-24T05:56:31;34.47;;;15.45;;
51270;SDS011;37744;50.960;4.136;2023-04-24T05:58:56;32.45;;;16.92;;
51270;SDS011;37744;50.960;4.136;2023-04-24T06:01:22;40.58;;;16.38;;
51270;SDS011;37744;50.960;4.136;2023-04-24T06:03:48;36.38;;;14.57;;
51270;SDS011;37744;50.960;4.136;2023-04-24T06:06:13;32.60;;;15.50;;
51270;SDS011;37744;50.960;4.136;2023-04-24T06:08:38;33.83;;;16.10;;
51270;SDS011;37744;50.960;4.136;2023-04-24T06:11:03;39.92;;;16.77;;
51270;SDS011;37744;50.960;4.136;2023-04-24T06:13:29;39.00;;;17.60;;
51270;SDS011;37744;50.960;4.136;2023-04-24T06:15:55;41.90;;;17.70;;
51270;SDS011;37744;50.960;4.136;2023-04-24T06:18:20;40.28;;;17.77;;
51270;SDS011;37744;50.960;4.136;2023-04-24T06:20:46;36.40;;;17.45;;
51270;SDS011;37744;50.960;4.136;2023-04-24T06:23:11;41.20;;;18.13;;
51270;SDS011;37744;50.960;4.136;2023-04-24T06:25:37;42.15;;;18.60;;
51270;SDS011;37744;50.960;4.136;2023-04-24T06:28:02;42.08;;;19.60;;
51270;SDS011;37744;50.960;4.136;2023-04-24T06:30:28;35.78;;;17.80;;
51270;SDS011;37744;50.960;4.136;2023-04-24T06:32:53;40.15;;;17.77;;
51270;SDS011;37744;50.960;4.136;2023-04-24T06:35:18;39.08;;;16.30;;
51270;SDS011;37744;50.960;4.136;2023-04-24T06:37:45;43.80;;;18.33;;
51270;SDS011;37744;50.960;4.136;2023-04-24T06:40:10;41.13;;;17.58;;
51270;SDS011;37744;50.960;4.136;2023-04-24T06:42:36;46.08;;;18.67;;
51270;SDS011;37744;50.960;4.136;2023-04-24T06:45:02;39.00;;;17.75;;
51270;SDS011;37744;50.960;4.136;2023-04-24T06:47:27;40.60;;;19.15;;
51270;SDS011;37744;50.960;4.136;2023-04-24T06:49:52;44.78;;;18.38;;
51270;SDS011;37744;50.960;4.136;2023-04-24T06:52:19;52.90;;;19.52;;
51270;SDS011;37744;50.960;4.136;2023-04-24T06:54:44;38.25;;;18.38;;
51270;SDS011;37744;50.960;4.136;2023-04-24T06:57:10;39.88;;;17.33;;
51270;SDS011;37744;50.960;4.136;2023-04-24T06:59:35;40.95;;;17.17;;
51270;SDS011;37744;50.960;4.136;2023-04-24T07:02:01;39.78;;;16.27;;
51270;SDS011;37744;50.960;4.136;2023-04-24T07:04:26;43.72;;;16.98;;
51270;SDS011;37744;50.960;4.136;2023-04-24T07:06:51;35.00;;;13.85;;
51270;SDS011;37744;50.960;4.136;2023-04-24T07:09:19;38.47;;;14.32;;
51270;SDS011;37744;50.960;4.136;2023-04-24T07:11:45;44.90;;;15.73;;
51270;SDS011;37744;50.960;4.136;2023-04-24T07:14:12;29.63;;;14.98;;
51270;SDS011;37744;50.960;4.136;2023-04-24T07:16:37;26.90;;;13.20;;
51270;SDS011;37744;50.960;4.136;2023-04-24T07:19:02;26.88;;;12.23;;
51270;SDS011;37744;50.960;4.136;2023-04-24T07:21:29;25.05;;;11.40;;
51270;SDS011;37744;50.960;4.136;2023-04-24T07:23:56;29.20;;;12.50;;
51270;SDS011;37744;50.960;4.136;2023-04-24T07:26:21;26.80;;;12.10;;
51270;SDS011;37744;50.960;4.136;2023-04-24T07:28:47;20.70;;;10.30;;
51270;SDS011;37744;50.960;4.136;2023-04-24T07:31:12;25.80;;;10.98;;
51270;SDS011;37744;50.960;4.136;2023-04-24T07:33:37;23.92;;;10.70;;
51270;SDS011;37744;50.960;4.136;2023-04-24T07:36:03;25.13;;;10.77;;
51270;SDS011;37744;50.960;4.136;2023-04-24T07:38:31;27.65;;;11.40;;
51270;SDS011;37744;50.960;4.136;2023-04-24T07:40:57;28.42;;;11.82;;
51270;SDS011;37744;50.960;4.136;2023-04-24T07:43:22;25.67;;;11.43;;
51270;SDS011;37744;50.960;4.136;2023-04-24T07:45:48;22.27;;;11.10;;
51270;SDS011;37744;50.960;4.136;2023-04-24T07:48:14;27.58;;;12.57;;
51270;SDS011;37744;50.960;4.136;2023-04-24T07:50:41;35.42;;;12.82;;
51270;SDS011;37744;50.960;4.136;2023-04-24T07:53:07;27.33;;;10.63;;
51270;SDS011;37744;50.960;4.136;2023-04-24T07:55:32;25.30;;;10.75;;
51270;SDS011;37744;50.960;4.136;2023-04-24T07:57:57;30.85;;;10.07;;
51270;SDS011;37744;50.960;4.136;2023-04-24T08:00:23;21.58;;;8.57;;
51270;SDS011;37744;50.960;4.136;2023-04-24T08:02:48;18.00;;;8.73;;
51270;SDS011;37744;50.960;4.136;2023-04-24T08:05:13;25.42;;;9.93;;
51270;SDS011;37744;50.960;4.136;2023-04-24T08:07:39;23.00;;;9.18;;
51270;SDS011;37744;50.960;4.136;2023-04-24T08:10:04;23.98;;;9.05;;
51270;SDS011;37744;50.960;4.136;2023-04-24T08:12:30;19.25;;;8.65;;
51270;SDS011;37744;50.960;4.136;2023-04-24T08:14:55;20.13;;;8.63;;
51270;SDS011;37744;50.960;4.136;2023-04-24T08:17:21;23.33;;;8.48;;
51270;SDS011;37744;50.960;4.136;2023-04-24T08:19:46;28.92;;;9.02;;
51270;SDS011;37744;50.960;4.136;2023-04-24T08:22:14;22.88;;;8.68;;
51270;SDS011;37744;50.960;4.136;2023-04-24T08:24:39;19.67;;;8.73;;
51270;SDS011;37744;50.960;4.136;2023-04-24T08:27:04;26.38;;;8.20;;
51270;SDS011;37744;50.960;4.136;2023-04-24T08:29:30;28.88;;;8.40;;
51270;SDS011;37744;50.960;4.136;2023-04-24T08:31:55;21.27;;;7.70;;
51270;SDS011;37744;50.960;4.136;2023-04-24T08:34:21;19.30;;;8.63;;
51270;SDS011;37744;50.960;4.136;2023-04-24T08:36:46;17.20;;;7.50;;
51270;SDS011;37744;50.960;4.136;2023-04-24T08:39:12;24.08;;;7.05;;
51270;SDS011;37744;50.960;4.136;2023-04-24T08:41:37;18.73;;;7.57;;
51270;SDS011;37744;50.960;4.136;2023-04-24T08:44:03;22.15;;;8.38;;
51270;SDS011;37744;50.960;4.136;2023-04-24T08:46:29;15.82;;;7.10;;
51270;SDS011;37744;50.960;4.136;2023-04-24T08:48:55;22.65;;;8.20;;
51270;SDS011;37744;50.960;4.136;2023-04-24T08:51:21;19.55;;;7.43;;
51270;SDS011;37744;50.960;4.136;2023-04-24T08:53:46;22.42;;;7.55;;
51270;SDS011;37744;50.960;4.136;2023-04-24T08:56:12;19.95;;;8.23;;
51270;SDS011;37744;50.960;4.136;2023-04-24T08:58:38;18.20;;;7.28;;
51270;SDS011;37744;50.960;4.136;2023-04-24T09:01:03;14.68;;;6.75;;
51270;SDS011;37744;50.960;4.136;2023-04-24T09:03:29;12.43;;;5.38;;
51270;SDS011;37744;50.960;4.136;2023-04-24T09:05:55;11.50;;;3.92;;
51270;SDS011;37744;50.960;4.136;2023-04-24T09:08:23;11.18;;;4.32;;
51270;SDS011;37744;50.960;4.136;2023-04-24T09:10:49;12.85;;;4.38;;
51270;SDS011;37744;50.960;4.136;2023-04-24T09:13:14;14.52;;;4.47;;
51270;SDS011;37744;50.960;4.136;2023-04-24T09:15:40;10.55;;;4.60;;
51270;SDS011;37744;50.960;4.136;2023-04-24T09:18:06;11.95;;;4.35;;
51270;SDS011;37744;50.960;4.136;2023-04-24T09:20:31;9.80;;;4.15;;
51270;SDS011;37744;50.960;4.136;2023-04-24T09:22:57;9.70;;;4.85;;
51270;SDS011;37744;50.960;4.136;2023-04-24T09:25:24;9.88;;;5.00;;
51270;SDS011;37744;50.960;4.136;2023-04-24T09:27:53;12.65;;;4.00;;
51270;SDS011;37744;50.960;4.136;2023-04-24T09:30:20;13.25;;;4.50;;
51270;SDS011;37744;50.960;4.136;2023-04-24T09:32:46;8.50;;;4.55;;
51270;SDS011;37744;50.960;4.136;2023-04-24T09:35:12;15.27;;;4.75;;
51270;SDS011;37744;50.960;4.136;2023-04-24T09:37:39;10.77;;;4.50;;
51270;SDS011;37744;50.960;4.136;2023-04-24T09:40:11;9.10;;;4.47;;
51270;SDS011;37744;50.960;4.136;2023-04-24T09:42:37;9.73;;;4.03;;
51270;SDS011;37744;50.960;4.136;2023-04-24T09:45:02;12.60;;;4.97;;
51270;SDS011;37744;50.960;4.136;2023-04-24T09:47:30;11.05;;;5.13;;
51270;SDS011;37744;50.960;4.136;2023-04-24T09:50:01;11.95;;;5.28;;
51270;SDS011;37744;50.960;4.136;2023-04-24T09:52:33;13.32;;;5.43;;
51270;SDS011;37744;50.960;4.136;2023-04-24T09:54:59;10.05;;;4.97;;
51270;SDS011;37744;50.960;4.136;2023-04-24T09:57:25;16.02;;;6.65;;
51270;SDS011;37744;50.960;4.136;2023-04-24T09:59:50;9.35;;;4.78;;
51270;SDS011;37744;50.960;4.136;2023-04-24T10:02:18;10.32;;;4.40;;
51270;SDS011;37744;50.960;4.136;2023-04-24T10:04:53;10.48;;;5.13;;
51270;SDS011;37744;50.960;4.136;2023-04-24T10:07:20;9.93;;;4.18;;
51270;SDS011;37744;50.960;4.136;2023-04-24T10:09:45;12.43;;;4.78;;
51270;SDS011;37744;50.960;4.136;2023-04-24T10:12:12;7.05;;;4.18;;
51270;SDS011;37744;50.960;4.136;2023-04-24T10:14:37;11.25;;;4.93;;
51270;SDS011;37744;50.960;4.136;2023-04-24T10:17:03;10.52;;;4.57;;
51270;SDS011;37744;50.960;4.136;2023-04-24T10:19:29;8.95;;;5.00;;
51270;SDS011;37744;50.960;4.136;2023-04-24T10:21:54;10.52;;;4.85;;
51270;SDS011;37744;50.960;4.136;2023-04-24T10:24:21;10.68;;;5.00;;
51270;SDS011;37744;50.960;4.136;2023-04-24T10:26:47;14.60;;;5.70;;
51270;SDS011;37744;50.960;4.136;2023-04-24T10:29:14;10.80;;;4.85;;
51270;SDS011;37744;50.960;4.136;2023-04-24T10:31:40;11.73;;;5.00;;
51270;SDS011;37744;50.960;4.136;2023-04-24T10:34:08;9.50;;;5.55;;
51270;SDS011;37744;50.960;4.136;2023-04-24T10:36:34;13.63;;;5.18;;
51270;SDS011;37744;50.960;4.136;2023-04-24T10:39:01;10.45;;;4.85;;
51270;SDS011;37744;50.960;4.136;2023-04-24T10:41:28;9.05;;;4.47;;
51270;SDS011;37744;50.960;4.136;2023-04-24T10:44:07;10.65;;;4.75;;
51270;SDS011;37744;50.960;4.136;2023-04-24T10:46:33;11.00;;;4.43;;
51270;SDS011;37744;50.960;4.136;2023-04-24T10:48:59;10.30;;;3.97;;
51270;SDS011;37744;50.960;4.136;2023-04-24T10:51:42;6.32;;;4.22;;
51270;SDS011;37744;50.960;4.136;2023-04-24T10:54:26;12.32;;;4.90;;
51270;SDS011;37744;50.960;4.136;2023-04-24T10:56:51;9.45;;;4.25;;
51270;SDS011;37744;50.960;4.136;2023-04-24T10:59:24;10.93;;;4.72;;
51270;SDS011;37744;50.960;4.136;2023-04-24T11:01:53;9.15;;;4.35;;
51270;SDS011;37744;50.960;4.136;2023-04-24T11:04:28;10.10;;;4.47;;
51270;SDS011;37744;50.960;4.136;2023-04-24T11:06:54;12.10;;;5.03;;
51270;SDS011;37744;50.960;4.136;2023-04-24T11:09:19;9.93;;;5.22;;
51270;SDS011;37744;50.960;4.136;2023-04-24T11:11:46;7.78;;;4.63;;
51270;SDS011;37744;50.960;4.136;2023-04-24T11:14:15;10.10;;;4.32;;
51270;SDS011;37744;50.960;4.136;2023-04-24T11:16:55;10.00;;;4.72;;
51270;SDS011;37744;50.960;4.136;2023-04-24T11:19:25;10.35;;;5.43;;
51270;SDS011;37744;50.960;4.136;2023-04-24T11:22:04;11.00;;;5.00;;
51270;SDS011;37744;50.960;4.136;2023-04-24T11:29:39;10.50;;;5.13;;
51270;SDS011;37744;50.960;4.136;2023-04-24T11:32:14;8.60;;;4.30;;
51270;SDS011;37744;50.960;4.136;2023-04-24T11:34:41;10.48;;;5.10;;
51270;SDS011;37744;50.960;4.136;2023-04-24T11:37:06;11.48;;;4.93;;
51270;SDS011;37744;50.960;4.136;2023-04-24T11:39:36;12.05;;;4.97;;
51270;SDS011;37744;50.960;4.136;2023-04-24T11:42:04;11.70;;;4.78;;
51270;SDS011;37744;50.960;4.136;2023-04-24T11:44:32;10.60;;;4.53;;
51270;SDS011;37744;50.960;4.136;2023-04-24T11:46:58;11.80;;;5.45;;
51270;SDS011;37744;50.960;4.136;2023-04-24T11:49:24;9.15;;;5.22;;
51270;SDS011;37744;50.960;4.136;2023-04-24T11:51:50;8.50;;;5.32;;
51270;SDS011;37744;50.960;4.136;2023-04-24T11:54:16;11.75;;;5.50;;
51270;SDS011;37744;50.960;4.136;2023-04-24T11:56:46;7.90;;;4.78;;
51270;SDS011;37744;50.960;4.136;2023-04-24T11:59:11;10.45;;;5.20;;
51270;SDS011;37744;50.960;4.136;2023-04-24T12:01:43;11.27;;;5.05;;
51270;SDS011;37744;50.960;4.136;2023-04-24T12:04:10;11.63;;;5.40;;
51270;SDS011;37744;50.960;4.136;2023-04-24T12:06:36;10.55;;;5.18;;
51270;SDS011;37744;50.960;4.136;2023-04-24T12:09:01;7.90;;;5.05;;
51270;SDS011;37744;50.960;4.136;2023-04-24T12:11:27;8.70;;;4.75;;
51270;SDS011;37744;50.960;4.136;2023-04-24T12:13:54;8.63;;;4.82;;
51270;SDS011;37744;50.960;4.136;2023-04-24T12:16:20;12.70;;;5.07;;
51270;SDS011;37744;50.960;4.136;2023-04-24T12:18:45;12.30;;;5.03;;
51270;SDS011;37744;50.960;4.136;2023-04-24T12:21:21;7.78;;;4.80;;
51270;SDS011;37744;50.960;4.136;2023-04-24T12:23:48;12.15;;;5.82;;
51270;SDS011;37744;50.960;4.136;2023-04-24T12:26:17;10.88;;;4.32;;
51270;SDS011;37744;50.960;4.136;2023-04-24T12:28:46;5.80;;;4.32;;
51270;SDS011;37744;50.960;4.136;2023-04-24T12:31:12;8.40;;;4.68;;
51270;SDS011;37744;50.960;4.136;2023-04-24T12:33:38;8.82;;;4.57;;
51270;SDS011;37744;50.960;4.136;2023-04-24T12:36:03;9.45;;;4.40;;
51270;SDS011;37744;50.960;4.136;2023-04-24T12:38:30;6.95;;;3.70;;
51270;SDS011;37744;50.960;4.136;2023-04-24T12:41:07;6.38;;;3.33;;
51270;SDS011;37744;50.960;4.136;2023-04-24T12:43:33;6.45;;;3.20;;
51270;SDS011;37744;50.960;4.136;2023-04-24T12:45:58;5.63;;;2.90;;
51270;SDS011;37744;50.960;4.136;2023-04-24T12:48:25;6.72;;;2.60;;
51270;SDS011;37744;50.960;4.136;2023-04-24T12:50:51;5.75;;;3.20;;
51270;SDS011;37744;50.960;4.136;2023-04-24T12:53:16;7.63;;;3.35;;
51270;SDS011;37744;50.960;4.136;2023-04-24T12:55:43;7.95;;;2.50;;
51270;SDS011;37744;50.960;4.136;2023-04-24T12:58:09;5.72;;;2.55;;
51270;SDS011;37744;50.960;4.136;2023-04-24T13:00:34;6.43;;;2.90;;
51270;SDS011;37744;50.960;4.136;2023-04-24T13:03:00;5.30;;;2.88;;
51270;SDS011;37744;50.960;4.136;2023-04-24T13:05:27;5.28;;;2.65;;
51270;SDS011;37744;50.960;4.136;2023-04-24T13:07:52;7.63;;;2.58;;
51270;SDS011;37744;50.960;4.136;2023-04-24T13:10:17;5.20;;;2.20;;
51270;SDS011;37744;50.960;4.136;2023-04-24T13:12:45;6.82;;;2.10;;
51270;SDS011;37744;50.960;4.136;2023-04-24T13:15:11;6.97;;;2.53;;
51270;SDS011;37744;50.960;4.136;2023-04-24T13:17:37;4.35;;;2.40;;
51270;SDS011;37744;50.960;4.136;2023-04-24T13:20:02;6.40;;;2.17;;
51270;SDS011;37744;50.960;4.136;2023-04-24T13:22:27;4.32;;;1.88;;
51270;SDS011;37744;50.960;4.136;2023-04-24T13:24:53;5.60;;;2.15;;
51270;SDS011;37744;50.960;4.136;2023-04-24T13:27:18;4.68;;;1.83;;
51270;SDS011;37744;50.960;4.136;2023-04-24T13:29:43;6.95;;;1.95;;
51270;SDS011;37744;50.960;4.136;2023-04-24T13:32:09;4.45;;;2.15;;
51270;SDS011;37744;50.960;4.136;2023-04-24T13:34:34;5.32;;;1.65;;
51270;SDS011;37744;50.960;4.136;2023-04-24T13:37:00;8.05;;;2.13;;
51270;SDS011;37744;50.960;4.136;2023-04-24T13:39:25;5.22;;;2.10;;
51270;SDS011;37744;50.960;4.136;2023-04-24T13:41:51;6.30;;;2.22;;
51270;SDS011;37744;50.960;4.136;2023-04-24T13:44:17;8.02;;;2.60;;
51270;SDS011;37744;50.960;4.136;2023-04-24T13:46:43;5.32;;;1.85;;
51270;SDS011;37744;50.960;4.136;2023-04-24T13:49:11;4.43;;;1.65;;
51270;SDS011;37744;50.960;4.136;2023-04-24T13:51:37;4.30;;;1.60;;
51270;SDS011;37744;50.960;4.136;2023-04-24T13:54:02;8.25;;;2.03;;
51270;SDS011;37744;50.960;4.136;2023-04-24T13:56:28;3.65;;;1.42;;
51270;SDS011;37744;50.960;4.136;2023-04-24T13:58:53;3.33;;;1.65;;
51270;SDS011;37744;50.960;4.136;2023-04-24T14:01:21;4.50;;;1.40;;
51270;SDS011;37744;50.960;4.136;2023-04-24T14:03:53;4.85;;;1.70;;
51270;SDS011;37744;50.960;4.136;2023-04-24T14:06:19;4.00;;;1.58;;
51270;SDS011;37744;50.960;4.136;2023-04-24T14:08:45;6.30;;;1.70;;
51270;SDS011;37744;50.960;4.136;2023-04-24T14:11:10;4.55;;;1.67;;
51270;SDS011;37744;50.960;4.136;2023-04-24T14:13:36;3.65;;;1.50;;
51270;SDS011;37744;50.960;4.136;2023-04-24T14:16:02;3.30;;;1.48;;
51270;SDS011;37744;50.960;4.136;2023-04-24T14:18:27;2.88;;;1.25;;
51270;SDS011;37744;50.960;4.136;2023-04-24T14:20:53;4.05;;;1.58;;
51270;SDS011;37744;50.960;4.136;2023-04-24T14:23:20;4.10;;;1.60;;
51270;SDS011;37744;50.960;4.136;2023-04-24T14:25:45;1.30;;;1.20;;
51270;SDS011;37744;50.960;4.136;2023-04-24T14:28:11;3.83;;;1.27;;
51270;SDS011;37744;50.960;4.136;2023-04-24T14:30:36;2.92;;;1.38;;